<?xml version='1.0' encoding='UTF-8'?><gpx version="1.1" creator="JPX - https://github.com/jenetics/jpx" xmlns="http://www.topografix.com/GPX/1/1"><trk><trkseg><trkpt lat="46.0106168" lon="8.2632087"><ele>232.0</ele><time>2026-04-10T15:55:54.213Z</time></trkpt><trkpt lat="46.010549" lon="8.2632394"><ele>232.0</ele><time>2026-04-10T15:55:59.194Z</time></trkpt><trkpt lat="46.0104762" lon="8.2633312"><ele>232.0</ele><time>2026-04-10T15:56:01.209Z</time></trkpt><trkpt lat="46.0104062" lon="8.263455"><ele>232.0</ele><time>2026-04-10T15:56:03.213Z</time></trkpt><trkpt lat="46.0103111" lon="8.2635177"><ele>232.0</ele><time>2026-04-10T15:56:05.212Z</time></trkpt><trkpt lat="46.0102343" lon="8.263581"><ele>231.99999999999997</ele><time>2026-04-10T15:56:07.213Z</time></trkpt><trkpt lat="46.0101814" lon="8.2636509"><ele>232.0</ele><time>2026-04-10T15:56:09.212Z</time></trkpt><trkpt lat="46.0101213" lon="8.2637012"><ele>232.0</ele><time>2026-04-10T15:56:11.212Z</time></trkpt><trkpt lat="46.0100636" lon="8.263754"><ele>232.0</ele><time>2026-04-10T15:56:13.212Z</time></trkpt><trkpt lat="46.0100309" lon="8.2638557"><ele>231.99999999999997</ele><time>2026-04-10T15:56:15.213Z</time></trkpt><trkpt lat="46.010044" lon="8.2639789"><ele>232.0</ele><time>2026-04-10T15:56:17.186Z</time></trkpt><trkpt lat="46.0100883" lon="8.2641087"><ele>232.14285714285717</ele><time>2026-04-10T15:56:19.212Z</time></trkpt><trkpt lat="46.0101186" lon="8.2642156"><ele>232.28571428571428</ele><time>2026-04-10T15:56:21.213Z</time></trkpt><trkpt lat="46.0101508" lon="8.2643223"><ele>232.42857142857144</ele><time>2026-04-10T15:56:23.213Z</time></trkpt><trkpt lat="46.0101807" lon="8.2644212"><ele>232.57142857142858</ele><time>2026-04-10T15:56:25.213Z</time></trkpt><trkpt lat="46.0102145" lon="8.2645076"><ele>232.71428571428572</ele><time>2026-04-10T15:56:27.128Z</time></trkpt><trkpt lat="46.0102436" lon="8.2646021"><ele>232.85714285714286</ele><time>2026-04-10T15:56:29.227Z</time></trkpt><trkpt lat="46.0102714" lon="8.2646979"><ele>233.0</ele><time>2026-04-10T15:56:31.213Z</time></trkpt><trkpt lat="46.010328" lon="8.2647435"><ele>233.0</ele><time>2026-04-10T15:56:33.131Z</time></trkpt><trkpt lat="46.0104082" lon="8.2647458"><ele>233.0</ele><time>2026-04-10T15:56:35.213Z</time></trkpt><trkpt lat="46.0104845" lon="8.2647372"><ele>233.0</ele><time>2026-04-10T15:56:37.212Z</time></trkpt><trkpt lat="46.0105557" lon="8.264727"><ele>233.0</ele><time>2026-04-10T15:56:39.211Z</time></trkpt><trkpt lat="46.010623" lon="8.2647107"><ele>233.0</ele><time>2026-04-10T15:56:41.212Z</time></trkpt><trkpt lat="46.0106906" lon="8.2646914"><ele>233.0</ele><time>2026-04-10T15:56:43.211Z</time></trkpt><trkpt lat="46.010756" lon="8.2646859"><ele>233.0</ele><time>2026-04-10T15:56:45.213Z</time></trkpt><trkpt lat="46.0108223" lon="8.2646958"><ele>232.50000000000003</ele><time>2026-04-10T15:56:47.213Z</time></trkpt><trkpt lat="46.0108878" lon="8.2647174"><ele>232.0</ele><time>2026-04-10T15:56:49.126Z</time></trkpt><trkpt lat="46.0109681" lon="8.2647088"><ele>231.5</ele><time>2026-04-10T15:56:51.212Z</time></trkpt><trkpt lat="46.0110383" lon="8.2646968"><ele>231.0</ele><time>2026-04-10T15:56:53.213Z</time></trkpt><trkpt lat="46.0111795" lon="8.264707"><ele>230.50000000000003</ele><time>2026-04-10T15:56:57.213Z</time></trkpt><trkpt lat="46.011252" lon="8.2646963"><ele>230.0</ele><time>2026-04-10T15:56:59.212Z</time></trkpt><trkpt lat="46.0113206" lon="8.2646796"><ele>230.00000000000003</ele><time>2026-04-10T15:57:01.212Z</time></trkpt><trkpt lat="46.0114121" lon="8.264676"><ele>230.0</ele><time>2026-04-10T15:57:04.212Z</time></trkpt><trkpt lat="46.0114796" lon="8.2646754"><ele>230.0</ele><time>2026-04-10T15:57:06.213Z</time></trkpt><trkpt lat="46.0115431" lon="8.2646835"><ele>230.0</ele><time>2026-04-10T15:57:08.234Z</time></trkpt><trkpt lat="46.011611" lon="8.2646747"><ele>230.00000000000003</ele><time>2026-04-10T15:57:10.213Z</time></trkpt><trkpt lat="46.011697" lon="8.2646623"><ele>230.0</ele><time>2026-04-10T15:57:13.213Z</time></trkpt><trkpt lat="46.0117786" lon="8.2646537"><ele>230.00000000000003</ele><time>2026-04-10T15:57:16.212Z</time></trkpt><trkpt lat="46.0118469" lon="8.2646519"><ele>230.0</ele><time>2026-04-10T15:57:18.212Z</time></trkpt><trkpt lat="46.0119357" lon="8.2646383"><ele>230.0</ele><time>2026-04-10T15:57:21.213Z</time></trkpt><trkpt lat="46.0120262" lon="8.2646329"><ele>230.0</ele><time>2026-04-10T15:57:24.213Z</time></trkpt><trkpt lat="46.0120942" lon="8.2646195"><ele>230.00000000000003</ele><time>2026-04-10T15:57:27.213Z</time></trkpt><trkpt lat="46.0121655" lon="8.2646255"><ele>230.0</ele><time>2026-04-10T15:57:32.212Z</time></trkpt><trkpt lat="46.0123022" lon="8.2646261"><ele>229.99999999999997</ele><time>2026-04-10T15:57:53.213Z</time></trkpt><trkpt lat="46.0123781" lon="8.2646583"><ele>230.0</ele><time>2026-04-10T15:57:55.213Z</time></trkpt><trkpt lat="46.0124485" lon="8.2646455"><ele>229.99999999999997</ele><time>2026-04-10T15:57:57.213Z</time></trkpt><trkpt lat="46.0125087" lon="8.2645979"><ele>229.99999999999997</ele><time>2026-04-10T15:57:59.212Z</time></trkpt><trkpt lat="46.0125747" lon="8.2645799"><ele>230.0</ele><time>2026-04-10T15:58:01.213Z</time></trkpt><trkpt lat="46.0126383" lon="8.2645646"><ele>229.99999999999997</ele><time>2026-04-10T15:58:03.213Z</time></trkpt><trkpt lat="46.0127282" lon="8.2645414"><ele>229.99999999999997</ele><time>2026-04-10T15:58:06.213Z</time></trkpt><trkpt lat="46.0128092" lon="8.2645041"><ele>230.33333333333334</ele><time>2026-04-10T15:58:09.125Z</time></trkpt><trkpt lat="46.0128745" lon="8.2645028"><ele>230.66666666666669</ele><time>2026-04-10T15:58:11.23Z</time></trkpt><trkpt lat="46.0129687" lon="8.2645014"><ele>231.0</ele><time>2026-04-10T15:58:14.212Z</time></trkpt><trkpt lat="46.0130269" lon="8.2644594"><ele>231.33333333333331</ele><time>2026-04-10T15:58:16.213Z</time></trkpt><trkpt lat="46.0131091" lon="8.2643968"><ele>231.66666666666666</ele><time>2026-04-10T15:58:19.213Z</time></trkpt><trkpt lat="46.0131818" lon="8.2643306"><ele>232.0</ele><time>2026-04-10T15:58:22.213Z</time></trkpt><trkpt lat="46.013249" lon="8.2642607"><ele>231.99999999999997</ele><time>2026-04-10T15:58:25.213Z</time></trkpt><trkpt lat="46.0133102" lon="8.2641879"><ele>232.0</ele><time>2026-04-10T15:58:28.213Z</time></trkpt><trkpt lat="46.0134291" lon="8.2641305"><ele>232.0</ele><time>2026-04-10T15:59:26.212Z</time></trkpt><trkpt lat="46.013495" lon="8.2640934"><ele>232.0</ele><time>2026-04-10T15:59:29.213Z</time></trkpt><trkpt lat="46.0135649" lon="8.2640577"><ele>231.99999999999997</ele><time>2026-04-10T15:59:31.212Z</time></trkpt><trkpt lat="46.0136391" lon="8.2640139"><ele>232.0</ele><time>2026-04-10T15:59:33.213Z</time></trkpt><trkpt lat="46.0137098" lon="8.2639693"><ele>232.14285714285717</ele><time>2026-04-10T15:59:35.211Z</time></trkpt><trkpt lat="46.0137769" lon="8.2639322"><ele>232.28571428571428</ele><time>2026-04-10T15:59:37.213Z</time></trkpt><trkpt lat="46.0138446" lon="8.2639156"><ele>232.42857142857144</ele><time>2026-04-10T15:59:39.213Z</time></trkpt><trkpt lat="46.013919" lon="8.2638751"><ele>232.57142857142858</ele><time>2026-04-10T15:59:41.213Z</time></trkpt><trkpt lat="46.0139839" lon="8.2638291"><ele>232.71428571428572</ele><time>2026-04-10T15:59:43.211Z</time></trkpt><trkpt lat="46.0140423" lon="8.2637725"><ele>232.85714285714286</ele><time>2026-04-10T15:59:45.213Z</time></trkpt><trkpt lat="46.014098" lon="8.2637125"><ele>233.0</ele><time>2026-04-10T15:59:47.212Z</time></trkpt><trkpt lat="46.0141595" lon="8.2636732"><ele>233.0</ele><time>2026-04-10T15:59:49.165Z</time></trkpt><trkpt lat="46.0142216" lon="8.2636398"><ele>233.0</ele><time>2026-04-10T15:59:51.213Z</time></trkpt><trkpt lat="46.0142832" lon="8.263604"><ele>233.0</ele><time>2026-04-10T15:59:53.213Z</time></trkpt><trkpt lat="46.0143416" lon="8.2635514"><ele>233.0</ele><time>2026-04-10T15:59:55.213Z</time></trkpt><trkpt lat="46.0143921" lon="8.2634899"><ele>233.0</ele><time>2026-04-10T15:59:57.212Z</time></trkpt><trkpt lat="46.0144477" lon="8.2634359"><ele>233.0</ele><time>2026-04-10T15:59:59.213Z</time></trkpt><trkpt lat="46.0145067" lon="8.2633807"><ele>233.0</ele><time>2026-04-10T16:00:01.207Z</time></trkpt><trkpt lat="46.0145668" lon="8.2633372"><ele>233.0</ele><time>2026-04-10T16:00:03.212Z</time></trkpt><trkpt lat="46.0146451" lon="8.2633396"><ele>233.0</ele><time>2026-04-10T16:00:06.213Z</time></trkpt><trkpt lat="46.0148074" lon="8.2633182"><ele>233.0</ele><time>2026-04-10T16:01:57.213Z</time></trkpt><trkpt lat="46.0148772" lon="8.263297"><ele>233.0</ele><time>2026-04-10T16:01:59.213Z</time></trkpt><trkpt lat="46.0149497" lon="8.2632812"><ele>233.0</ele><time>2026-04-10T16:02:02.132Z</time></trkpt><trkpt lat="46.0150358" lon="8.2632386"><ele>233.16666666666669</ele><time>2026-04-10T16:02:04.213Z</time></trkpt><trkpt lat="46.0151221" lon="8.2631852"><ele>233.33333333333334</ele><time>2026-04-10T16:02:07.212Z</time></trkpt><trkpt lat="46.015189" lon="8.2631785"><ele>233.5</ele><time>2026-04-10T16:02:09.213Z</time></trkpt><trkpt lat="46.0152721" lon="8.2631435"><ele>233.66666666666669</ele><time>2026-04-10T16:02:12.213Z</time></trkpt><trkpt lat="46.0153533" lon="8.2631182"><ele>233.83333333333334</ele><time>2026-04-10T16:02:15.153Z</time></trkpt><trkpt lat="46.0154433" lon="8.2631006"><ele>234.0</ele><time>2026-04-10T16:02:18.212Z</time></trkpt><trkpt lat="46.0155204" lon="8.2630526"><ele>234.5</ele><time>2026-04-10T16:02:21.213Z</time></trkpt><trkpt lat="46.0155841" lon="8.2630133"><ele>235.0</ele><time>2026-04-10T16:02:23.129Z</time></trkpt><trkpt lat="46.015656" lon="8.2629919"><ele>235.5</ele><time>2026-04-10T16:02:25.213Z</time></trkpt><trkpt lat="46.0157218" lon="8.2629803"><ele>236.0</ele><time>2026-04-10T16:02:27.213Z</time></trkpt><trkpt lat="46.0158069" lon="8.2629356"><ele>236.5</ele><time>2026-04-10T16:02:30.128Z</time></trkpt><trkpt lat="46.0158689" lon="8.262917"><ele>237.0</ele><time>2026-04-10T16:02:32.213Z</time></trkpt><trkpt lat="46.0159585" lon="8.2628873"><ele>236.99999999999997</ele><time>2026-04-10T16:02:35.213Z</time></trkpt><trkpt lat="46.0158986" lon="8.2628539"><ele>237.0</ele><time>2026-04-10T16:02:41.134Z</time></trkpt><trkpt lat="46.0158359" lon="8.2629007"><ele>236.99999999999997</ele><time>2026-04-10T16:02:43.213Z</time></trkpt><trkpt lat="46.0157794" lon="8.262944"><ele>236.99999999999997</ele><time>2026-04-10T16:02:45.114Z</time></trkpt><trkpt lat="46.0157063" lon="8.2629639"><ele>237.0</ele><time>2026-04-10T16:02:47.212Z</time></trkpt><trkpt lat="46.0156251" lon="8.2630142"><ele>236.99999999999997</ele><time>2026-04-10T16:02:50.213Z</time></trkpt><trkpt lat="46.0155593" lon="8.2630384"><ele>236.99999999999997</ele><time>2026-04-10T16:02:52.213Z</time></trkpt><trkpt lat="46.0154736" lon="8.2630846"><ele>236.5</ele><time>2026-04-10T16:02:55.213Z</time></trkpt><trkpt lat="46.015394" lon="8.2631156"><ele>236.0</ele><time>2026-04-10T16:02:58.213Z</time></trkpt><trkpt lat="46.0153102" lon="8.2631276"><ele>235.5</ele><time>2026-04-10T16:03:01.212Z</time></trkpt><trkpt lat="46.0152345" lon="8.2631718"><ele>235.0</ele><time>2026-04-10T16:03:04.217Z</time></trkpt><trkpt lat="46.015153" lon="8.2632208"><ele>234.5</ele><time>2026-04-10T16:03:07.191Z</time></trkpt><trkpt lat="46.0150703" lon="8.2632381"><ele>234.0</ele><time>2026-04-10T16:03:10.149Z</time></trkpt><trkpt lat="46.0149869" lon="8.2632588"><ele>233.79999999999998</ele><time>2026-04-10T16:03:13.213Z</time></trkpt><trkpt lat="46.0149176" lon="8.2632956"><ele>233.59999999999997</ele><time>2026-04-10T16:03:16.213Z</time></trkpt><trkpt lat="46.0148394" lon="8.2632906"><ele>233.4</ele><time>2026-04-10T16:03:19.213Z</time></trkpt><trkpt lat="46.0146959" lon="8.263316"><ele>233.2</ele><time>2026-04-10T16:05:41.213Z</time></trkpt><trkpt lat="46.0146238" lon="8.2633398"><ele>233.0</ele><time>2026-04-10T16:05:44.213Z</time></trkpt><trkpt lat="46.0145449" lon="8.2633829"><ele>233.0</ele><time>2026-04-10T16:05:47.212Z</time></trkpt><trkpt lat="46.0144901" lon="8.2634365"><ele>233.0</ele><time>2026-04-10T16:05:49.211Z</time></trkpt><trkpt lat="46.0144111" lon="8.2635062"><ele>233.0</ele><time>2026-04-10T16:05:52.211Z</time></trkpt><trkpt lat="46.0143507" lon="8.263543"><ele>233.0</ele><time>2026-04-10T16:05:54.213Z</time></trkpt><trkpt lat="46.0142942" lon="8.2635849"><ele>233.0</ele><time>2026-04-10T16:05:56.212Z</time></trkpt><trkpt lat="46.0142134" lon="8.2636542"><ele>233.0</ele><time>2026-04-10T16:05:59.213Z</time></trkpt><trkpt lat="46.0141642" lon="8.2637154"><ele>233.0</ele><time>2026-04-10T16:06:01.213Z</time></trkpt><trkpt lat="46.014104" lon="8.263754"><ele>233.0</ele><time>2026-04-10T16:06:03.211Z</time></trkpt><trkpt lat="46.0140424" lon="8.2637922"><ele>233.0</ele><time>2026-04-10T16:06:05.212Z</time></trkpt><trkpt lat="46.013977" lon="8.263826"><ele>233.0</ele><time>2026-04-10T16:06:07.234Z</time></trkpt><trkpt lat="46.0139162" lon="8.2638783"><ele>233.0</ele><time>2026-04-10T16:06:09.213Z</time></trkpt><trkpt lat="46.0138583" lon="8.2639231"><ele>233.0</ele><time>2026-04-10T16:06:11.238Z</time></trkpt><trkpt lat="46.0137993" lon="8.263963"><ele>233.0</ele><time>2026-04-10T16:06:13.213Z</time></trkpt><trkpt lat="46.0137148" lon="8.2640038"><ele>233.0</ele><time>2026-04-10T16:06:16.213Z</time></trkpt><trkpt lat="46.0136577" lon="8.2640503"><ele>233.14285714285717</ele><time>2026-04-10T16:06:18.242Z</time></trkpt><trkpt lat="46.0135969" lon="8.2640742"><ele>233.28571428571428</ele><time>2026-04-10T16:06:20.213Z</time></trkpt><trkpt lat="46.0135103" lon="8.2641076"><ele>233.42857142857144</ele><time>2026-04-10T16:06:23.211Z</time></trkpt><trkpt lat="46.0134399" lon="8.2641323"><ele>233.57142857142858</ele><time>2026-04-10T16:06:25.198Z</time></trkpt><trkpt lat="46.013378" lon="8.2641642"><ele>233.71428571428572</ele><time>2026-04-10T16:06:27.213Z</time></trkpt><trkpt lat="46.0133254" lon="8.2642147"><ele>233.85714285714286</ele><time>2026-04-10T16:06:29.198Z</time></trkpt><trkpt lat="46.0132689" lon="8.2642614"><ele>234.0</ele><time>2026-04-10T16:06:31.212Z</time></trkpt><trkpt lat="46.0132237" lon="8.2643297"><ele>233.66666666666666</ele><time>2026-04-10T16:06:33.213Z</time></trkpt><trkpt lat="46.0131499" lon="8.2644113"><ele>233.33333333333331</ele><time>2026-04-10T16:06:36.213Z</time></trkpt><trkpt lat="46.0130627" lon="8.2644503"><ele>233.0</ele><time>2026-04-10T16:06:39.141Z</time></trkpt><trkpt lat="46.0129743" lon="8.2644735"><ele>232.66666666666666</ele><time>2026-04-10T16:06:42.173Z</time></trkpt><trkpt lat="46.0128995" lon="8.2645024"><ele>232.33333333333331</ele><time>2026-04-10T16:06:45.215Z</time></trkpt><trkpt lat="46.0128216" lon="8.2645006"><ele>232.0</ele><time>2026-04-10T16:06:48.138Z</time></trkpt><trkpt lat="46.0127572" lon="8.2645136"><ele>232.0</ele><time>2026-04-10T16:06:50.213Z</time></trkpt><trkpt lat="46.012672" lon="8.2645379"><ele>232.0</ele><time>2026-04-10T16:06:53.035Z</time></trkpt><trkpt lat="46.0126" lon="8.2646029"><ele>232.0</ele><time>2026-04-10T16:06:56.212Z</time></trkpt><trkpt lat="46.0125161" lon="8.2646137"><ele>232.0</ele><time>2026-04-10T16:07:01.212Z</time></trkpt><trkpt lat="46.0123272" lon="8.2646542"><ele>232.0</ele><time>2026-04-10T16:08:20.213Z</time></trkpt><trkpt lat="46.0122536" lon="8.2646471"><ele>231.71428571428575</ele><time>2026-04-10T16:08:24.213Z</time></trkpt><trkpt lat="46.0121618" lon="8.2646273"><ele>231.42857142857144</ele><time>2026-04-10T16:08:27.212Z</time></trkpt><trkpt lat="46.0120972" lon="8.2646402"><ele>231.14285714285714</ele><time>2026-04-10T16:08:29.213Z</time></trkpt><trkpt lat="46.0120302" lon="8.2646409"><ele>230.85714285714286</ele><time>2026-04-10T16:08:31.222Z</time></trkpt><trkpt lat="46.0119661" lon="8.2646459"><ele>230.57142857142856</ele><time>2026-04-10T16:08:33.212Z</time></trkpt><trkpt lat="46.0119028" lon="8.2646456"><ele>230.28571428571425</ele><time>2026-04-10T16:08:35.213Z</time></trkpt><trkpt lat="46.0118391" lon="8.2646488"><ele>229.99999999999997</ele><time>2026-04-10T16:08:37.212Z</time></trkpt><trkpt lat="46.0117781" lon="8.2646751"><ele>229.99999999999997</ele><time>2026-04-10T16:08:39.213Z</time></trkpt><trkpt lat="46.0117131" lon="8.2646677"><ele>230.0</ele><time>2026-04-10T16:08:41.161Z</time></trkpt><trkpt lat="46.0116461" lon="8.2646814"><ele>229.99999999999997</ele><time>2026-04-10T16:08:43.213Z</time></trkpt><trkpt lat="46.0115536" lon="8.2647162"><ele>229.99999999999997</ele><time>2026-04-10T16:08:46.213Z</time></trkpt><trkpt lat="46.0114876" lon="8.2647294"><ele>230.0</ele><time>2026-04-10T16:08:48.213Z</time></trkpt><trkpt lat="46.011416" lon="8.2647196"><ele>229.99999999999997</ele><time>2026-04-10T16:08:50.236Z</time></trkpt><trkpt lat="46.0113388" lon="8.2647066"><ele>229.99999999999997</ele><time>2026-04-10T16:08:52.213Z</time></trkpt><trkpt lat="46.011266" lon="8.2647024"><ele>230.00000000000003</ele><time>2026-04-10T16:08:54.216Z</time></trkpt><trkpt lat="46.0111907" lon="8.2647068"><ele>230.0</ele><time>2026-04-10T16:08:56.212Z</time></trkpt><trkpt lat="46.0111208" lon="8.264714"><ele>230.0</ele><time>2026-04-10T16:08:58.14Z</time></trkpt><trkpt lat="46.0110455" lon="8.2647283"><ele>230.0</ele><time>2026-04-10T16:09:00.213Z</time></trkpt><trkpt lat="46.0109763" lon="8.2647414"><ele>230.00000000000003</ele><time>2026-04-10T16:09:02.213Z</time></trkpt><trkpt lat="46.0109068" lon="8.2647178"><ele>230.0</ele><time>2026-04-10T16:09:04.213Z</time></trkpt><trkpt lat="46.0108045" lon="8.2647147"><ele>230.6</ele><time>2026-04-10T16:09:07.213Z</time></trkpt><trkpt lat="46.0106717" lon="8.2646711"><ele>231.2</ele><time>2026-04-10T16:12:16.213Z</time></trkpt><trkpt lat="46.0105842" lon="8.2646932"><ele>231.8</ele><time>2026-04-10T16:12:19.214Z</time></trkpt><trkpt lat="46.0105069" lon="8.2647335"><ele>232.4</ele><time>2026-04-10T16:12:21.214Z</time></trkpt><trkpt lat="46.010423" lon="8.2647635"><ele>233.0</ele><time>2026-04-10T16:12:24.214Z</time></trkpt><trkpt lat="46.0103396" lon="8.2647481"><ele>233.00000000000003</ele><time>2026-04-10T16:12:27.214Z</time></trkpt><trkpt lat="46.0102734" lon="8.2647051"><ele>233.0</ele><time>2026-04-10T16:12:29.214Z</time></trkpt><trkpt lat="46.0102231" lon="8.264646"><ele>233.0</ele><time>2026-04-10T16:12:31.214Z</time></trkpt><trkpt lat="46.0101798" lon="8.2645345"><ele>233.0</ele><time>2026-04-10T16:12:34.214Z</time></trkpt><trkpt lat="46.0101919" lon="8.264405"><ele>233.00000000000003</ele><time>2026-04-10T16:12:37.214Z</time></trkpt><trkpt lat="46.01016" lon="8.2643102"><ele>233.0</ele><time>2026-04-10T16:12:39.214Z</time></trkpt><trkpt lat="46.0101244" lon="8.2642201"><ele>233.0</ele><time>2026-04-10T16:12:41.213Z</time></trkpt><trkpt lat="46.0100828" lon="8.2641397"><ele>233.0</ele><time>2026-04-10T16:12:43.214Z</time></trkpt><trkpt lat="46.0100602" lon="8.2640427"><ele>233.0</ele><time>2026-04-10T16:12:45.214Z</time></trkpt><trkpt lat="46.0100485" lon="8.2639441"><ele>233.0</ele><time>2026-04-10T16:12:47.213Z</time></trkpt><trkpt lat="46.0100394" lon="8.2638544"><ele>233.0</ele><time>2026-04-10T16:12:49.141Z</time></trkpt><trkpt lat="46.0100873" lon="8.2637756"><ele>233.0</ele><time>2026-04-10T16:12:51.172Z</time></trkpt><trkpt lat="46.0101579" lon="8.2637149"><ele>233.0</ele><time>2026-04-10T16:12:53.214Z</time></trkpt><trkpt lat="46.0102136" lon="8.2636359"><ele>232.83333333333334</ele><time>2026-04-10T16:12:55.213Z</time></trkpt><trkpt lat="46.010269" lon="8.2635471"><ele>232.66666666666669</ele><time>2026-04-10T16:12:57.214Z</time></trkpt><trkpt lat="46.0103296" lon="8.2634671"><ele>232.5</ele><time>2026-04-10T16:12:59.214Z</time></trkpt><trkpt lat="46.0103872" lon="8.2633869"><ele>232.33333333333331</ele><time>2026-04-10T16:13:01.214Z</time></trkpt><trkpt lat="46.010443" lon="8.2633063"><ele>232.16666666666666</ele><time>2026-04-10T16:13:03.214Z</time></trkpt><trkpt lat="46.0105163" lon="8.2632554"><ele>232.0</ele><time>2026-04-10T16:13:05.213Z</time></trkpt><trkpt lat="46.010585" lon="8.263209"><ele>232.0</ele><time>2026-04-10T16:13:07.214Z</time></trkpt><trkpt lat="46.0106483" lon="8.263182"><ele>232.0</ele><time>2026-04-10T16:13:09.214Z</time></trkpt><trkpt lat="46.0107119" lon="8.2631889"><ele>232.0</ele><time>2026-04-10T16:13:13.214Z</time></trkpt></trkseg></trk></gpx>